Time,TemperatureF,DewpointF,PressureIn,WindDirection,WindDirectionDegrees,WindSpeedMPH,WindSpeedGustMPH,Humidity,HourlyPrecipIn,Conditions,Clouds,dailyrainin,SoftwareType,DateUTC
2013-12-24 00:00:00,35.9,35.9,30.23,NE,36,1.0,1.0,100,0.00,,,0.00,Wunderground v.1.15,2013-12-24 08:00:00,
2013-12-24 00:10:00,35.9,35.9,30.23,NE,35,0.0,3.0,100,0.00,,,0.00,Wunderground v.1.15,2013-12-24 08:10:00,
2013-12-24 00:20:00,35.3,35.3,30.23,East,80,0.0,3.0,100,0.00,,,0.00,Wunderground v.1.15,2013-12-24 08:20:00,
2013-12-24 00:30:00,34.9,34.9,30.22,East,80,0.0,3.0,100,0.00,,,0.00,Wunderground v.1.15,2013-12-24 08:30:00,
2013-12-24 00:40:00,35.0,35.0,30.23,East,80,0.0,3.0,100,0.00,,,0.00,Wunderground v.1.15,2013-12-24 08:40:00,
2013-12-24 00:50:00,35.2,35.2,30.23,East,80,0.0,3.0,100,0.00,,,0.00,Wunderground v.1.15,2013-12-24 08:50:00,
2013-12-24 01:00:00,35.3,35.3,30.22,East,80,0.0,3.0,100,0.00,,,0.00,Wunderground v.1.15,2013-12-24 09:00:00,
2013-12-24 01:10:00,35.2,35.2,30.22,East,80,0.0,3.0,100,0.00,,,0.00,Wunderground v.1.15,2013-12-24 09:10:00,
2013-12-24 01:20:00,35.3,35.3,30.22,East,80,0.0,3.0,100,0.00,,,0.00,Wunderground v.1.15,2013-12-24 09:20:00,
2013-12-24 01:30:00,35.9,35.9,30.22,East,80,1.0,1.0,100,0.00,,,0.00,Wunderground v.1.15,2013-12-24 09:30:00,
2013-12-24 01:40:00,35.6,35.6,30.22,East,80,0.0,3.0,100,0.00,,,0.00,Wunderground v.1.15,2013-12-24 09:40:00,
2013-12-24 01:50:00,35.8,35.8,30.22,East,80,0.0,3.0,100,0.00,,,0.00,Wunderground v.1.15,2013-12-24 09:50:00,
2013-12-24 02:00:00,35.5,35.5,30.22,East,80,0.0,3.0,100,0.00,,,0.00,Wunderground v.1.15,2013-12-24 10:00:00,
2013-12-24 02:10:00,35.3,35.3,30.22,East,80,0.0,3.0,100,0.00,,,0.00,Wunderground v.1.15,2013-12-24 10:10:00,
2013-12-24 02:20:00,35.5,35.5,30.22,East,80,0.0,3.0,100,0.00,,,0.00,Wunderground v.1.15,2013-12-24 10:20:00,
2013-12-24 02:30:00,35.8,35.8,30.22,East,80,0.0,3.0,100,0.00,,,0.00,Wunderground v.1.15,2013-12-24 10:30:00,
2013-12-24 02:40:00,35.5,35.5,30.22,East,80,0.0,3.0,100,0.00,,,0.00,Wunderground v.1.15,2013-12-24 10:40:00,
2013-12-24 02:50:00,35.0,35.0,30.22,East,80,0.0,3.0,100,0.00,,,0.00,Wunderground v.1.15,2013-12-24 10:50:00,
2013-12-24 03:00:00,35.2,35.2,30.22,East,80,0.0,3.0,100,0.00,,,0.00,Wunderground v.1.15,2013-12-24 11:00:00,
2013-12-24 03:10:00,35.6,35.6,30.21,East,80,0.0,3.0,100,0.00,,,0.00,Wunderground v.1.15,2013-12-24 11:10:00,
2013-12-24 03:20:00,34.9,34.9,30.21,ESE,112,0.0,3.0,100,0.00,,,0.00,Wunderground v.1.15,2013-12-24 11:20:00,
2013-12-24 03:30:00,35.0,35.0,30.21,ESE,112,0.0,3.0,100,0.00,,,0.00,Wunderground v.1.15,2013-12-24 11:30:00,
2013-12-24 03:40:00,34.7,34.7,30.21,ESE,111,0.0,3.0,100,0.00,,,0.00,Wunderground v.1.15,2013-12-24 11:40:00,
2013-12-24 03:50:00,34.9,34.9,30.21,ESE,111,0.0,3.0,100,0.00,,,0.00,Wunderground v.1.15,2013-12-24 11:50:00,
2013-12-24 04:00:00,35.2,35.2,30.21,ESE,112,0.0,3.0,100,0.00,,,0.00,Wunderground v.1.15,2013-12-24 12:00:00,
2013-12-24 04:10:00,35.2,35.2,30.21,ESE,112,0.0,3.0,100,0.00,,,0.00,Wunderground v.1.15,2013-12-24 12:10:00,
2013-12-24 04:20:00,35.0,35.0,30.21,ESE,112,0.0,3.0,100,0.00,,,0.00,Wunderground v.1.15,2013-12-24 12:20:00,
2013-12-24 04:30:00,34.9,34.9,30.20,ESE,111,0.0,3.0,100,0.00,,,0.00,Wunderground v.1.15,2013-12-24 12:30:00,
2013-12-24 04:40:00,34.7,34.7,30.20,ESE,111,0.0,3.0,100,0.00,,,0.00,Wunderground v.1.15,2013-12-24 12:40:00,
2013-12-24 04:50:00,34.9,34.9,30.20,ESE,111,0.0,3.0,100,0.00,,,0.00,Wunderground v.1.15,2013-12-24 12:50:00,
2013-12-24 05:00:00,34.9,34.9,30.20,ESE,112,0.0,3.0,100,0.00,,,0.00,Wunderground v.1.15,2013-12-24 13:00:00,
2013-12-24 05:10:00,34.4,34.4,30.20,ESE,111,0.0,3.0,100,0.00,,,0.00,Wunderground v.1.15,2013-12-24 13:10:00,
2013-12-24 05:20:00,34.1,34.1,30.20,ESE,111,0.0,3.0,100,0.00,,,0.00,Wunderground v.1.15,2013-12-24 13:20:00,
2013-12-24 05:30:00,34.6,34.6,30.20,ESE,111,0.0,3.0,100,0.00,,,0.00,Wunderground v.1.15,2013-12-24 13:30:00,
2013-12-24 05:40:00,34.4,34.4,30.20,ESE,111,0.0,3.0,100,0.00,,,0.00,Wunderground v.1.15,2013-12-24 13:40:00,
2013-12-24 05:50:00,34.1,34.1,30.20,ESE,111,0.0,3.0,100,0.00,,,0.00,Wunderground v.1.15,2013-12-24 13:50:00,
2013-12-24 06:00:00,34.7,34.7,30.19,ESE,111,0.0,3.0,100,0.00,,,0.00,Wunderground v.1.15,2013-12-24 14:00:00,
2013-12-24 06:10:00,34.3,34.3,30.19,ESE,111,0.0,3.0,100,0.00,,,0.00,Wunderground v.1.15,2013-12-24 14:10:00,
2013-12-24 06:20:00,34.3,34.3,30.19,ESE,111,0.0,3.0,100,0.00,,,0.00,Wunderground v.1.15,2013-12-24 14:20:00,
2013-12-24 06:30:00,34.3,34.3,30.20,ESE,111,0.0,3.0,100,0.00,,,0.00,Wunderground v.1.15,2013-12-24 14:30:00,
2013-12-24 06:40:00,34.4,34.4,30.20,ENE,62,0.0,3.0,100,0.00,,,0.00,Wunderground v.1.15,2013-12-24 14:40:00,
2013-12-24 06:50:00,34.1,34.1,30.20,ENE,62,0.0,3.0,100,0.00,,,0.00,Wunderground v.1.15,2013-12-24 14:50:00,
2013-12-24 07:00:00,34.7,34.7,30.19,ENE,61,0.0,3.0,100,0.00,,,0.00,Wunderground v.1.15,2013-12-24 15:00:00,
2013-12-24 07:10:00,34.9,34.9,30.19,ENE,61,0.0,3.0,100,0.00,,,0.00,Wunderground v.1.15,2013-12-24 15:10:00,
2013-12-24 07:20:00,34.7,34.7,30.19,ENE,61,0.0,3.0,100,0.00,,,0.00,Wunderground v.1.15,2013-12-24 15:20:00,
2013-12-24 07:30:00,34.4,34.4,30.20,ENE,61,0.0,3.0,100,0.00,,,0.00,Wunderground v.1.15,2013-12-24 15:30:00,
2013-12-24 07:40:00,34.4,34.4,30.20,ENE,61,0.0,3.0,100,0.00,,,0.00,Wunderground v.1.15,2013-12-24 15:40:00,
2013-12-24 07:50:00,34.9,34.9,30.20,ENE,61,0.0,3.0,100,0.00,,,0.00,Wunderground v.1.15,2013-12-24 15:50:00,
2013-12-24 08:00:00,34.9,34.9,30.20,ENE,61,0.0,3.0,100,0.00,,,0.00,Wunderground v.1.15,2013-12-24 16:00:00,
2013-12-24 08:10:00,35.0,35.0,30.20,ENE,61,0.0,3.0,100,0.00,,,0.00,Wunderground v.1.15,2013-12-24 16:10:00,
2013-12-24 08:20:00,35.3,35.3,30.20,ENE,61,0.0,3.0,100,0.00,,,0.00,Wunderground v.1.15,2013-12-24 16:20:00,
2013-12-24 08:30:00,37.2,37.2,30.21,ENE,61,0.0,3.0,100,0.00,,,0.00,Wunderground v.1.15,2013-12-24 16:30:00,
2013-12-24 08:40:00,40.3,40.3,30.21,ENE,61,0.0,3.0,100,0.00,,,0.00,Wunderground v.1.15,2013-12-24 16:40:00,
2013-12-24 08:50:00,41.8,41.8,30.21,ENE,61,0.0,3.0,100,0.00,,,0.00,Wunderground v.1.15,2013-12-24 16:50:00,
2013-12-24 09:00:00,41.9,41.9,30.21,ENE,61,0.0,3.0,100,0.00,,,0.00,Wunderground v.1.15,2013-12-24 17:00:00,
2013-12-24 09:10:00,44.6,44.6,30.20,ENE,61,0.0,3.0,100,0.00,,,0.00,Wunderground v.1.15,2013-12-24 17:10:00,
2013-12-24 09:20:00,47.0,47.0,30.20,ENE,61,0.0,3.0,100,0.00,,,0.00,Wunderground v.1.15,2013-12-24 17:20:00,
2013-12-24 09:30:00,48.9,48.9,30.20,ENE,61,0.0,3.0,100,0.00,,,0.00,Wunderground v.1.15,2013-12-24 17:30:00,
2013-12-24 09:40:00,48.6,48.6,30.20,South,169,1.0,1.0,100,0.00,,,0.00,Wunderground v.1.15,2013-12-24 17:40:00,
2013-12-24 09:50:00,50.2,50.2,30.20,South,169,0.0,3.0,100,0.00,,,0.00,Wunderground v.1.15,2013-12-24 17:50:00,
2013-12-24 10:00:00,51.7,51.7,30.20,South,169,0.0,3.0,100,0.00,,,0.00,Wunderground v.1.15,2013-12-24 18:00:00,
2013-12-24 10:10:00,53.1,53.1,30.20,South,179,0.0,3.0,100,0.00,,,0.00,Wunderground v.1.15,2013-12-24 18:10:00,
2013-12-24 10:20:00,54.4,54.4,30.20,NNE,24,0.0,3.0,100,0.00,,,0.00,Wunderground v.1.15,2013-12-24 18:20:00,
2013-12-24 10:30:00,54.7,54.7,30.20,NNE,24,0.0,3.0,100,0.00,,,0.00,Wunderground v.1.15,2013-12-24 18:30:00,
2013-12-24 10:40:00,56.7,56.4,30.19,NNE,24,0.0,3.0,99,0.00,,,0.00,Wunderground v.1.15,2013-12-24 18:40:00,
2013-12-24 10:50:00,58.7,57.9,30.19,NNE,24,0.0,3.0,97,0.00,,,0.00,Wunderground v.1.15,2013-12-24 18:50:00,
2013-12-24 11:00:00,60.9,59.2,30.18,ESE,122,0.0,3.0,94,0.00,,,0.00,Wunderground v.1.15,2013-12-24 19:00:00,
2013-12-24 11:10:00,62.7,60.3,30.17,ESE,122,0.0,3.0,92,0.00,,,0.00,Wunderground v.1.15,2013-12-24 19:10:00,
2013-12-24 11:20:00,63.2,60.5,30.17,SE,126,0.0,3.0,91,0.00,,,0.00,Wunderground v.1.15,2013-12-24 19:20:00,
2013-12-24 11:30:00,64.7,62.0,30.16,SSW,198,1.0,1.0,91,0.00,,,0.00,Wunderground v.1.15,2013-12-24 19:30:00,
2013-12-24 11:40:00,65.6,62.3,30.15,SSW,192,1.0,1.0,89,0.00,,,0.00,Wunderground v.1.15,2013-12-24 19:40:00,
2013-12-24 11:50:00,67.3,63.9,30.15,South,191,0.0,3.0,89,0.00,,,0.00,Wunderground v.1.15,2013-12-24 19:50:00,
2013-12-24 12:00:00,68.9,64.9,30.15,South,178,0.0,3.0,87,0.00,,,0.00,Wunderground v.1.15,2013-12-24 20:00:00,
2013-12-24 12:10:00,71.1,67.0,30.14,SSE,165,0.0,3.0,87,0.00,,,0.00,Wunderground v.1.15,2013-12-24 20:10:00,
2013-12-24 12:20:00,71.1,67.0,30.14,ENE,61,0.0,3.0,87,0.00,,,0.00,Wunderground v.1.15,2013-12-24 20:20:00,
2013-12-24 12:30:00,70.9,66.5,30.13,ENE,61,0.0,3.0,86,0.00,,,0.00,Wunderground v.1.15,2013-12-24 20:30:00,
2013-12-24 12:40:00,71.8,67.4,30.12,ENE,60,0.0,3.0,86,0.00,,,0.00,Wunderground v.1.15,2013-12-24 20:40:00,
2013-12-24 12:50:00,72.8,69.0,30.12,SW,223,0.0,3.0,88,0.00,,,0.00,Wunderground v.1.15,2013-12-24 20:50:00,
2013-12-24 13:00:00,72.7,68.6,30.11,South,190,0.0,3.0,87,0.00,,,0.00,Wunderground v.1.15,2013-12-24 21:00:00,
2013-12-24 13:10:00,72.5,68.4,30.10,NNW,335,1.0,1.0,87,0.00,,,0.00,Wunderground v.1.15,2013-12-24 21:10:00,
2013-12-24 13:20:00,73.0,68.9,30.10,WNW,294,0.0,3.0,87,0.00,,,0.00,Wunderground v.1.15,2013-12-24 21:20:00,
2013-12-24 13:30:00,73.5,69.4,30.10,SSW,198,1.0,3.0,87,0.00,,,0.00,Wunderground v.1.15,2013-12-24 21:30:00,
2013-12-24 13:40:00,73.2,68.8,30.10,SW,236,2.0,3.0,86,0.00,,,0.00,Wunderground v.1.15,2013-12-24 21:40:00,
2013-12-24 13:50:00,72.8,68.4,30.10,WNW,296,1.0,5.0,86,0.00,,,0.00,Wunderground v.1.15,2013-12-24 21:50:00,
2013-12-24 14:00:00,72.8,68.0,30.10,WNW,291,1.0,3.0,85,0.00,,,0.00,Wunderground v.1.15,2013-12-24 22:00:00,
2013-12-24 14:10:00,73.2,68.4,30.09,West,278,1.0,1.0,85,0.00,,,0.00,Wunderground v.1.15,2013-12-24 22:10:00,
2013-12-24 14:20:00,73.7,69.6,30.09,West,280,1.0,1.0,87,0.00,,,0.00,Wunderground v.1.15,2013-12-24 22:20:00,
2013-12-24 14:30:00,73.0,69.6,30.09,WNW,294,2.0,5.0,89,0.00,,,0.00,Wunderground v.1.15,2013-12-24 22:30:00,
2013-12-24 14:40:00,71.6,68.2,30.09,WNW,289,3.0,4.0,89,0.00,,,0.00,Wunderground v.1.15,2013-12-24 22:40:00,
2013-12-24 14:50:00,70.8,67.1,30.09,NNW,336,3.0,5.0,88,0.00,,,0.00,Wunderground v.1.15,2013-12-24 22:50:00,
2013-12-24 15:00:00,70.6,67.2,30.09,WNW,287,3.0,3.0,89,0.00,,,0.00,Wunderground v.1.15,2013-12-24 23:00:00,
2013-12-24 15:10:00,70.1,66.7,30.09,WNW,294,3.0,4.0,89,0.00,,,0.00,Wunderground v.1.15,2013-12-24 23:10:00,
2013-12-24 15:20:00,69.8,66.1,30.09,WNW,290,2.0,4.0,88,0.00,,,0.00,Wunderground v.1.15,2013-12-24 23:20:00,
2013-12-24 15:30:00,69.8,66.1,30.10,WNW,298,1.0,1.0,88,0.00,,,0.00,Wunderground v.1.15,2013-12-24 23:30:00,
2013-12-24 15:40:00,69.8,66.4,30.10,SW,217,1.0,1.0,89,0.00,,,0.00,Wunderground v.1.15,2013-12-24 23:40:00,
2013-12-24 15:50:00,69.9,66.5,30.10,SW,217,0.0,3.0,89,0.00,,,0.00,Wunderground v.1.15,2013-12-24 23:50:00,
2013-12-24 16:00:00,69.9,66.8,30.10,SW,221,0.0,3.0,90,0.00,,,0.00,Wunderground v.1.15,2013-12-25 00:00:00,
2013-12-24 16:10:00,69.3,66.2,30.10,West,273,0.0,3.0,90,0.00,,,0.00,Wunderground v.1.15,2013-12-25 00:10:00,
2013-12-24 16:20:00,65.6,62.9,30.10,WNW,303,1.0,1.0,91,0.00,,,0.00,Wunderground v.1.15,2013-12-25 00:20:00,
2013-12-24 16:30:00,64.0,61.3,30.10,SSW,193,0.0,3.0,91,0.00,,,0.00,Wunderground v.1.15,2013-12-25 00:30:00,
2013-12-24 16:40:00,62.9,60.2,30.10,SW,215,0.0,3.0,91,0.00,,,0.00,Wunderground v.1.15,2013-12-25 00:40:00,
2013-12-24 16:50:00,60.9,58.6,30.10,SW,217,0.0,3.0,92,0.00,,,0.00,Wunderground v.1.15,2013-12-25 00:50:00,
2013-12-24 17:00:00,58.6,56.6,30.10,SW,222,1.0,1.0,93,0.00,,,0.00,Wunderground v.1.15,2013-12-25 01:00:00,
2013-12-24 17:10:00,57.3,55.3,30.10,SW,222,0.0,3.0,93,0.00,,,0.00,Wunderground v.1.15,2013-12-25 01:10:00,
2013-12-24 17:20:00,55.4,53.4,30.10,SW,221,0.0,3.0,93,0.00,,,0.00,Wunderground v.1.15,2013-12-25 01:20:00,
2013-12-24 17:30:00,53.2,51.5,30.10,SW,221,0.0,3.0,94,0.00,,,0.00,Wunderground v.1.15,2013-12-25 01:30:00,
2013-12-24 17:40:00,51.4,49.7,30.10,SW,221,0.0,3.0,94,0.00,,,0.00,Wunderground v.1.15,2013-12-25 01:40:00,
2013-12-24 17:50:00,48.9,47.5,30.10,WSW,244,0.0,3.0,95,0.00,,,0.00,Wunderground v.1.15,2013-12-25 01:50:00,
2013-12-24 18:00:00,48.5,47.4,30.10,WSW,244,0.0,3.0,96,0.00,,,0.00,Wunderground v.1.15,2013-12-25 02:00:00,
2013-12-24 18:10:00,47.1,46.0,30.10,WNW,297,0.0,3.0,96,0.00,,,0.00,Wunderground v.1.15,2013-12-25 02:10:00,
2013-12-24 18:20:00,46.5,45.7,30.10,WNW,297,0.0,3.0,97,0.00,,,0.00,Wunderground v.1.15,2013-12-25 02:20:00,
2013-12-24 18:30:00,45.5,45.0,30.09,WNW,297,0.0,3.0,98,0.00,,,0.00,Wunderground v.1.15,2013-12-25 02:30:00,
2013-12-24 18:40:00,44.1,43.8,30.09,NNE,33,1.0,1.0,99,0.00,,,0.00,Wunderground v.1.15,2013-12-25 02:40:00,
2013-12-24 18:50:00,43.6,43.6,30.09,NNE,33,0.0,3.0,100,0.00,,,0.00,Wunderground v.1.15,2013-12-25 02:50:00,
2013-12-24 19:00:00,43.1,43.1,30.10,NNE,32,0.0,3.0,100,0.00,,,0.00,Wunderground v.1.15,2013-12-25 03:00:00,
2013-12-24 19:10:00,43.1,43.1,30.10,NNE,33,0.0,3.0,100,0.00,,,0.00,Wunderground v.1.15,2013-12-25 03:10:00,
2013-12-24 19:20:00,42.5,42.5,30.10,NNE,33,0.0,3.0,100,0.00,,,0.00,Wunderground v.1.15,2013-12-25 03:20:00,
2013-12-24 19:30:00,41.9,41.9,30.10,NNE,33,0.0,3.0,100,0.00,,,0.00,Wunderground v.1.15,2013-12-25 03:30:00,
2013-12-24 19:40:00,41.3,41.3,30.10,NNE,33,0.0,3.0,100,0.00,,,0.00,Wunderground v.1.15,2013-12-25 03:40:00,
2013-12-24 19:50:00,40.6,40.6,30.10,NNE,33,0.0,3.0,100,0.00,,,0.00,Wunderground v.1.15,2013-12-25 03:50:00,
2013-12-24 20:00:00,40.2,40.2,30.10,NNE,33,0.0,3.0,100,0.00,,,0.00,Wunderground v.1.15,2013-12-25 04:00:00,
2013-12-24 20:10:00,39.6,39.6,30.10,NNE,33,0.0,3.0,100,0.00,,,0.00,Wunderground v.1.15,2013-12-25 04:10:00,
2013-12-24 20:20:00,39.1,39.1,30.10,NNE,33,0.0,3.0,100,0.00,,,0.00,Wunderground v.1.15,2013-12-25 04:20:00,
2013-12-24 20:30:00,38.5,38.5,30.10,NNE,33,0.0,3.0,100,0.00,,,0.00,Wunderground v.1.15,2013-12-25 04:30:00,
2013-12-24 20:40:00,38.2,38.2,30.10,NNE,33,0.0,3.0,100,0.00,,,0.00,Wunderground v.1.15,2013-12-25 04:40:00,
2013-12-24 20:50:00,37.9,37.9,30.10,NNE,33,0.0,3.0,100,0.00,,,0.00,Wunderground v.1.15,2013-12-25 04:50:00,
2013-12-24 21:00:00,37.8,37.8,30.11,NNE,33,0.0,3.0,100,0.00,,,0.00,Wunderground v.1.15,2013-12-25 05:00:00,
2013-12-24 21:10:00,38.0,38.0,30.12,NNE,33,0.0,3.0,100,0.00,,,0.00,Wunderground v.1.15,2013-12-25 05:10:00,
2013-12-24 21:20:00,37.6,37.6,30.12,NNE,33,0.0,3.0,100,0.00,,,0.00,Wunderground v.1.15,2013-12-25 05:20:00,
2013-12-24 21:30:00,37.2,37.2,30.12,NNE,33,0.0,3.0,100,0.00,,,0.00,Wunderground v.1.15,2013-12-25 05:30:00,
2013-12-24 21:40:00,37.0,37.0,30.12,NNE,33,0.0,3.0,100,0.00,,,0.00,Wunderground v.1.15,2013-12-25 05:40:00,
2013-12-24 21:50:00,36.6,36.6,30.12,NNE,33,0.0,3.0,100,0.00,,,0.00,Wunderground v.1.15,2013-12-25 05:50:00,
2013-12-24 22:00:00,36.0,36.0,30.13,NNE,33,0.0,3.0,100,0.00,,,0.00,Wunderground v.1.15,2013-12-25 06:00:00,
2013-12-24 22:10:00,35.9,35.9,30.13,NNE,33,0.0,3.0,100,0.00,,,0.00,Wunderground v.1.15,2013-12-25 06:10:00,
2013-12-24 22:20:00,35.6,35.6,30.13,NNE,33,0.0,3.0,100,0.00,,,0.00,Wunderground v.1.15,2013-12-25 06:20:00,
2013-12-24 22:30:00,35.3,35.3,30.14,NNE,33,0.0,3.0,100,0.00,,,0.00,Wunderground v.1.15,2013-12-25 06:30:00,
2013-12-24 22:40:00,35.8,35.8,30.14,NNE,33,0.0,3.0,100,0.00,,,0.00,Wunderground v.1.15,2013-12-25 06:40:00,
2013-12-24 22:50:00,35.3,35.3,30.14,NNE,33,0.0,3.0,100,0.00,,,0.00,Wunderground v.1.15,2013-12-25 06:50:00,
2013-12-24 23:00:00,35.0,35.0,30.14,NNE,33,0.0,3.0,100,0.00,,,0.00,Wunderground v.1.15,2013-12-25 07:00:00,
2013-12-24 23:10:00,34.6,34.6,30.13,NNE,32,0.0,3.0,100,0.00,,,0.00,Wunderground v.1.15,2013-12-25 07:10:00,
2013-12-24 23:20:00,35.2,35.2,30.13,NNE,23,0.0,3.0,100,0.00,,,0.00,Wunderground v.1.15,2013-12-25 07:20:00,
2013-12-24 23:30:00,35.3,35.3,30.13,NNE,23,0.0,3.0,100,0.00,,,0.00,Wunderground v.1.15,2013-12-25 07:30:00,
2013-12-24 23:40:00,34.3,34.3,30.13,NNE,23,0.0,3.0,100,0.00,,,0.00,Wunderground v.1.15,2013-12-25 07:40:00,
2013-12-24 23:50:00,33.8,33.8,30.13,NNE,23,0.0,3.0,100,0.00,,,0.00,Wunderground v.1.15,2013-12-25 07:50:00,